Howard Beach, New York
Current Conditions -  °F | °C
As of 11:51 PM on Friday 19 Dec 2014 (Local Time) from KJFK Reporting Station
Broken Clouds Broken Clouds  
Wind Chill: -5°   Ceiling: 2900
Heat Index:   Visibility: 10mi
Dew Point: -6°   Wind: 14mph
Humidity: 61%   Direction: 340°NNW
Pressure: 30.21"   Gusts: NA
Location:  40.66°N, 73.84°W
Report Text: KJFK 200451Z 34012KT 10SM BKN029 01/M06 A3021 RMK AO2 SLP228 T00061061 400440000 $
Loading
Personal Weather Stations






























Interactive Weather Map New forecast layout! Learn more

10-Day Weather Forecast

Advertisements
Track Severe Weather on mobile